Date,TemperatureHighF,TemperatureAvgF,TemperatureLowF,DewpointHighF,DewpointAvgF,DewpointLowF,HumidityHigh,HumidityAvg,HumidityLow,PressureMaxIn,PressureMinIn,WindSpeedMaxMPH,WindSpeedAvgMPH,GustSpeedMaxMPH,PrecipitationSumIn
2013-7-3,72.0,65.3,51.0,55.0,51.0,46.0,92,62,39,0.00,40.00,7,3,12,0.00
2013-7-4,71.0,67.5,63.0,51.0,50.0,49.0,62,53,48,0.00,40.00,3,2,9,0.00
2013-7-6,68.0,63.5,59.0,55.0,55.0,55.0,86,74,63,0.00,40.00,1,0,2,0.00
2013-7-8,73.0,62.0,51.0,57.0,53.0,49.0,92,74,57,0.00,40.00,3,2,6,0.00
2013-7-9,70.0,60.5,51.0,56.0,53.0,50.0,96,78,58,0.00,40.00,7,3,12,0.00
2013-7-10,66.0,62.0,53.0,49.0,47.8,46.0,86,61,50,0.00,40.00,5,3,9,0.00
2013-7-11,62.0,57.4,51.0,50.0,47.0,44.0,86,69,53,0.00,40.00,3,2,9,0.00
2013-7-12,68.0,59.0,47.0,51.0,47.7,45.0,92,68,46,0.00,40.00,5,2,9,0.00
2013-7-13,67.0,64.0,59.0,52.0,50.0,49.0,69,60,54,0.00,40.00,5,3,7,0.00
2013-7-15,-200.0,0.0,200.0,-99.9,-99.9,-99.9,0,0,100,0.00,40.00,5,5,10,0.00
2013-7-16,78.0,78.0,78.0,43.0,43.0,43.0,28,28,28,0.00,40.00,5,5,13,0.00
2013-7-17,65.0,62.2,58.0,55.0,53.0,52.0,80,72,65,0.00,40.00,3,2,9,0.00
2013-7-18,65.0,61.3,55.0,55.0,53.3,52.0,89,75,67,0.00,40.00,6,4,10,0.00
2013-7-19,67.0,67.0,67.0,56.0,56.0,56.0,67,67,67,0.00,40.00,6,6,10,0.00
2013-7-20,67.0,63.3,58.0,54.0,52.7,50.0,77,68,62,0.00,40.00,6,4,12,0.00
2013-7-21,64.0,58.2,53.0,55.0,52.8,50.0,89,82,72,0.00,40.00,3,2,6,0.00
2013-7-22,68.0,59.1,51.0,55.0,52.6,49.0,92,80,63,0.00,40.00,3,2,6,0.00
2013-7-23,74.0,60.8,50.0,56.0,52.8,49.0,96,77,53,0.00,40.00,2,1,6,0.00
2013-7-24,48.0,48.0,48.0,47.0,47.0,47.0,96,96,96,0.00,40.00,0,0,1,0.00
2013-7-25,71.0,71.0,71.0,55.0,55.0,55.0,56,56,56,0.00,40.00,6,6,10,0.00
2013-7-26,70.0,62.8,51.0,56.0,52.8,49.0,92,71,61,0.00,40.00,3,2,12,0.00
2013-7-27,65.0,65.0,65.0,51.0,51.0,51.0,60,60,60,0.00,40.00,3,3,7,0.00
2013-7-28,63.0,56.3,51.0,53.0,50.7,48.0,89,81,69,0.00,40.00,3,2,7,0.00
2013-7-29,62.0,54.2,49.0,53.0,50.2,47.0,96,86,72,0.00,40.00,3,1,7,0.00
2013-7-30,61.0,58.0,55.0,55.0,54.0,53.0,92,86,80,0.00,40.00,1,1,3,0.00
2013-7-31,63.0,56.8,54.0,54.0,52.5,51.0,92,86,72,0.00,40.00,3,2,6,0.00